sensor_id;sensor_type;location;lat;lon;timestamp;P1;durP1;ratioP1;P2;durP2;ratioP2
2884;SDS011;54691;48.262;11.586;2022-09-27T00:03:59;1.95;;;0.93;;
2884;SDS011;54691;48.262;11.586;2022-09-27T00:10:57;2.58;;;1.52;;
2884;SDS011;54691;48.262;11.586;2022-09-27T00:17:55;3.92;;;1.12;;
2884;SDS011;54691;48.262;11.586;2022-09-27T00:24:52;3.70;;;1.40;;
2884;SDS011;54691;48.262;11.586;2022-09-27T00:31:49;3.92;;;1.50;;
2884;SDS011;54691;48.262;11.586;2022-09-27T00:38:46;7.20;;;1.20;;
2884;SDS011;54691;48.262;11.586;2022-09-27T00:45:46;4.80;;;1.37;;
2884;SDS011;54691;48.262;11.586;2022-09-27T00:59:48;2.40;;;0.82;;
2884;SDS011;54691;48.262;11.586;2022-09-27T01:06:41;3.02;;;1.40;;
2884;SDS011;54691;48.262;11.586;2022-09-27T01:14:03;1.52;;;1.02;;
2884;SDS011;54691;48.262;11.586;2022-09-27T01:20:54;5.70;;;1.20;;
2884;SDS011;54691;48.262;11.586;2022-09-27T01:35:14;2.42;;;0.93;;
2884;SDS011;54691;48.262;11.586;2022-09-27T01:45:59;2.90;;;1.22;;
2884;SDS011;54691;48.262;11.586;2022-09-27T01:49:34;1.95;;;1.30;;
2884;SDS011;54691;48.262;11.586;2022-09-27T01:56:31;2.75;;;1.15;;
2884;SDS011;54691;48.262;11.586;2022-09-27T02:03:30;1.90;;;1.25;;
2884;SDS011;54691;48.262;11.586;2022-09-27T02:10:32;1.95;;;1.20;;
2884;SDS011;54691;48.262;11.586;2022-09-27T02:21:20;4.80;;;1.32;;
2884;SDS011;54691;48.262;11.586;2022-09-27T02:28:27;2.47;;;1.20;;
2884;SDS011;54691;48.262;11.586;2022-09-27T02:31:56;8.45;;;1.52;;
2884;SDS011;54691;48.262;11.586;2022-09-27T02:38:56;7.50;;;1.42;;
2884;SDS011;54691;48.262;11.586;2022-09-27T02:46:02;2.80;;;1.40;;
2884;SDS011;54691;48.262;11.586;2022-09-27T02:52:59;3.87;;;1.98;;
2884;SDS011;54691;48.262;11.586;2022-09-27T03:00:11;3.70;;;2.10;;
2884;SDS011;54691;48.262;11.586;2022-09-27T03:03:42;5.47;;;2.60;;
2884;SDS011;54691;48.262;11.586;2022-09-27T03:10:39;8.75;;;1.95;;
2884;SDS011;54691;48.262;11.586;2022-09-27T03:17:36;4.17;;;1.90;;
2884;SDS011;54691;48.262;11.586;2022-09-27T03:24:33;4.55;;;2.37;;
2884;SDS011;54691;48.262;11.586;2022-09-27T03:31:30;8.43;;;1.80;;
2884;SDS011;54691;48.262;11.586;2022-09-27T03:38:27;6.62;;;2.20;;
2884;SDS011;54691;48.262;11.586;2022-09-27T03:45:27;4.53;;;2.22;;
2884;SDS011;54691;48.262;11.586;2022-09-27T03:52:24;4.22;;;1.82;;
2884;SDS011;54691;48.262;11.586;2022-09-27T03:59:21;2.95;;;1.45;;
2884;SDS011;54691;48.262;11.586;2022-09-27T04:06:18;4.12;;;1.60;;
2884;SDS011;54691;48.262;11.586;2022-09-27T04:13:18;3.83;;;1.20;;
2884;SDS011;54691;48.262;11.586;2022-09-27T04:20:18;2.62;;;1.20;;
2884;SDS011;54691;48.262;11.586;2022-09-27T04:36:21;5.50;;;1.00;;
2884;SDS011;54691;48.262;11.586;2022-09-27T04:39:59;2.80;;;1.80;;
2884;SDS011;54691;48.262;11.586;2022-09-27T04:50:29;0.70;;;0.47;;
2884;SDS011;54691;48.262;11.586;2022-09-27T04:57:30;4.87;;;0.70;;
2884;SDS011;54691;48.262;11.586;2022-09-27T05:11:34;1.22;;;0.82;;
2884;SDS011;54691;48.262;11.586;2022-09-27T05:18:35;0.98;;;0.78;;
2884;SDS011;54691;48.262;11.586;2022-09-27T05:25:37;2.40;;;1.10;;
2884;SDS011;54691;48.262;11.586;2022-09-27T05:32:34;1.17;;;0.50;;
2884;SDS011;54691;48.262;11.586;2022-09-27T05:39:31;2.15;;;0.50;;
2884;SDS011;54691;48.262;11.586;2022-09-27T05:46:28;0.50;;;0.30;;
2884;SDS011;54691;48.262;11.586;2022-09-27T05:53:25;0.93;;;0.55;;
2884;SDS011;54691;48.262;11.586;2022-09-27T06:00:25;1.35;;;0.50;;
2884;SDS011;54691;48.262;11.586;2022-09-27T06:14:32;0.30;;;0.20;;
2884;SDS011;54691;48.262;11.586;2022-09-27T06:21:29;0.20;;;0.20;;
2884;SDS011;54691;48.262;11.586;2022-09-27T06:28:26;0.30;;;0.20;;
2884;SDS011;54691;48.262;11.586;2022-09-27T06:35:26;1.45;;;0.30;;
2884;SDS011;54691;48.262;11.586;2022-09-27T06:42:23;2.30;;;1.35;;
2884;SDS011;54691;48.262;11.586;2022-09-27T06:49:24;10.45;;;0.60;;
2884;SDS011;54691;48.262;11.586;2022-09-27T06:56:22;1.90;;;0.47;;
2884;SDS011;54691;48.262;11.586;2022-09-27T07:03:37;1.20;;;0.40;;
2884;SDS011;54691;48.262;11.586;2022-09-27T07:10:37;0.65;;;0.20;;
2884;SDS011;54691;48.262;11.586;2022-09-27T07:17:36;0.60;;;0.55;;
2884;SDS011;54691;48.262;11.586;2022-09-27T07:24:35;2.87;;;0.90;;
2884;SDS011;54691;48.262;11.586;2022-09-27T07:31:32;1.82;;;0.70;;
2884;SDS011;54691;48.262;11.586;2022-09-27T07:38:31;0.33;;;0.25;;
2884;SDS011;54691;48.262;11.586;2022-09-27T07:45:29;2.25;;;0.47;;
2884;SDS011;54691;48.262;11.586;2022-09-27T07:52:28;3.42;;;0.68;;
2884;SDS011;54691;48.262;11.586;2022-09-27T07:59:25;2.58;;;0.70;;
2884;SDS011;54691;48.262;11.586;2022-09-27T08:14:02;15.90;;;1.95;;
2884;SDS011;54691;48.262;11.586;2022-09-27T08:21:02;1.25;;;0.55;;
2884;SDS011;54691;48.262;11.586;2022-09-27T08:34:56;0.10;;;0.10;;
2884;SDS011;54691;48.262;11.586;2022-09-27T08:38:32;0.20;;;0.20;;
2884;SDS011;54691;48.262;11.586;2022-09-27T08:45:31;1.30;;;1.12;;
2884;SDS011;54691;48.262;11.586;2022-09-27T08:52:31;0.30;;;0.30;;
2884;SDS011;54691;48.262;11.586;2022-09-27T08:59:33;0.70;;;0.30;;
2884;SDS011;54691;48.262;11.586;2022-09-27T09:06:38;4.85;;;1.47;;
2884;SDS011;54691;48.262;11.586;2022-09-27T09:20:53;4.35;;;0.30;;
2884;SDS011;54691;48.262;11.586;2022-09-27T09:31:46;6.33;;;2.22;;
2884;SDS011;54691;48.262;11.586;2022-09-27T09:39:15;6.83;;;2.60;;
2884;SDS011;54691;48.262;11.586;2022-09-27T09:42:29;4.40;;;2.10;;
2884;SDS011;54691;48.262;11.586;2022-09-27T09:56:35;0.93;;;0.40;;
2884;SDS011;54691;48.262;11.586;2022-09-27T10:00:17;0.80;;;0.50;;
2884;SDS011;54691;48.262;11.586;2022-09-27T10:03:56;0.27;;;0.20;;
2884;SDS011;54691;48.262;11.586;2022-09-27T10:07:51;0.10;;;0.10;;
2884;SDS011;54691;48.262;11.586;2022-09-27T10:18:25;0.47;;;0.30;;
2884;SDS011;54691;48.262;11.586;2022-09-27T10:25:23;0.78;;;0.40;;
2884;SDS011;54691;48.262;11.586;2022-09-27T10:32:29;0.95;;;0.50;;
2884;SDS011;54691;48.262;11.586;2022-09-27T10:43:01;0.80;;;0.20;;
2884;SDS011;54691;48.262;11.586;2022-09-27T10:46:45;0.43;;;0.30;;
2884;SDS011;54691;48.262;11.586;2022-09-27T10:50:24;0.35;;;0.35;;
2884;SDS011;54691;48.262;11.586;2022-09-27T10:54:04;0.70;;;0.62;;
2884;SDS011;54691;48.262;11.586;2022-09-27T11:01:18;0.20;;;0.20;;
2884;SDS011;54691;48.262;11.586;2022-09-27T11:05:07;1.72;;;0.30;;
2884;SDS011;54691;48.262;11.586;2022-09-27T11:08:55;3.33;;;0.25;;
2884;SDS011;54691;48.262;11.586;2022-09-27T11:12:16;0.50;;;0.30;;
2884;SDS011;54691;48.262;11.586;2022-09-27T11:16:15;0.10;;;0.10;;
2884;SDS011;54691;48.262;11.586;2022-09-27T11:35:44;1.00;;;0.10;;
2884;SDS011;54691;48.262;11.586;2022-09-27T12:03:43;6.05;;;0.30;;
2884;SDS011;54691;48.262;11.586;2022-09-27T12:10:46;2.45;;;0.60;;
2884;SDS011;54691;48.262;11.586;2022-09-27T12:17:44;10.25;;;2.52;;
2884;SDS011;54691;48.262;11.586;2022-09-27T12:25:12;0.85;;;0.50;;
2884;SDS011;54691;48.262;11.586;2022-09-27T12:35:48;0.98;;;0.37;;
2884;SDS011;54691;48.262;11.586;2022-09-27T12:39:27;0.93;;;0.30;;
2884;SDS011;54691;48.262;11.586;2022-09-27T12:50:36;2.80;;;0.30;;
2884;SDS011;54691;48.262;11.586;2022-09-27T12:58:08;0.17;;;0.17;;
2884;SDS011;54691;48.262;11.586;2022-09-27T13:12:56;1.17;;;0.50;;
2884;SDS011;54691;48.262;11.586;2022-09-27T13:16:43;0.60;;;0.40;;
2884;SDS011;54691;48.262;11.586;2022-09-27T13:24:00;5.30;;;0.62;;
2884;SDS011;54691;48.262;11.586;2022-09-27T13:31:00;6.62;;;1.62;;
2884;SDS011;54691;48.262;11.586;2022-09-27T13:49:03;0.72;;;0.47;;
2884;SDS011;54691;48.262;11.586;2022-09-27T14:03:12;0.20;;;0.20;;
2884;SDS011;54691;48.262;11.586;2022-09-27T14:10:41;0.30;;;0.30;;
2884;SDS011;54691;48.262;11.586;2022-09-27T14:14:02;0.62;;;0.20;;
2884;SDS011;54691;48.262;11.586;2022-09-27T14:32:09;0.20;;;0.20;;
2884;SDS011;54691;48.262;11.586;2022-09-27T14:39:30;0.50;;;0.47;;
2884;SDS011;54691;48.262;11.586;2022-09-27T14:43:00;0.20;;;0.20;;
2884;SDS011;54691;48.262;11.586;2022-09-27T14:54:17;0.57;;;0.30;;
2884;SDS011;54691;48.262;11.586;2022-09-27T15:04:41;0.93;;;0.30;;
2884;SDS011;54691;48.262;11.586;2022-09-27T15:08:23;0.20;;;0.20;;
2884;SDS011;54691;48.262;11.586;2022-09-27T15:12:00;0.65;;;0.40;;
2884;SDS011;54691;48.262;11.586;2022-09-27T15:15:37;0.28;;;0.15;;
2884;SDS011;54691;48.262;11.586;2022-09-27T15:22:44;1.22;;;0.13;;
2884;SDS011;54691;48.262;11.586;2022-09-27T15:26:33;2.25;;;0.50;;
2884;SDS011;54691;48.262;11.586;2022-09-27T15:41:09;1.35;;;0.28;;
2884;SDS011;54691;48.262;11.586;2022-09-27T15:44:52;1.10;;;0.30;;
2884;SDS011;54691;48.262;11.586;2022-09-27T15:57:01;0.88;;;0.37;;
2884;SDS011;54691;48.262;11.586;2022-09-27T16:07:55;0.40;;;0.30;;
2884;SDS011;54691;48.262;11.586;2022-09-27T16:11:50;3.60;;;0.40;;
2884;SDS011;54691;48.262;11.586;2022-09-27T16:15:29;2.90;;;0.80;;
2884;SDS011;54691;48.262;11.586;2022-09-27T17:03:47;4.47;;;1.00;;
2884;SDS011;54691;48.262;11.586;2022-09-27T17:07:28;6.85;;;1.47;;
2884;SDS011;54691;48.262;11.586;2022-09-27T17:14:39;3.80;;;1.30;;
2884;SDS011;54691;48.262;11.586;2022-09-27T18:33:26;6.08;;;1.80;;
2884;SDS011;54691;48.262;11.586;2022-09-27T18:37:03;5.20;;;1.20;;
2884;SDS011;54691;48.262;11.586;2022-09-27T18:44:03;3.35;;;1.60;;
2884;SDS011;54691;48.262;11.586;2022-09-27T18:54:39;2.55;;;1.10;;
2884;SDS011;54691;48.262;11.586;2022-09-27T19:09:06;2.35;;;1.52;;
2884;SDS011;54691;48.262;11.586;2022-09-27T19:16:07;5.25;;;1.20;;
2884;SDS011;54691;48.262;11.586;2022-09-27T19:23:04;0.93;;;0.65;;
2884;SDS011;54691;48.262;11.586;2022-09-27T19:30:11;0.55;;;0.50;;
2884;SDS011;54691;48.262;11.586;2022-09-27T19:33:42;3.85;;;1.00;;
2884;SDS011;54691;48.262;11.586;2022-09-27T19:40:53;3.50;;;0.70;;
2884;SDS011;54691;48.262;11.586;2022-09-27T19:47:52;1.15;;;0.50;;
2884;SDS011;54691;48.262;11.586;2022-09-27T19:54:55;0.75;;;0.50;;
2884;SDS011;54691;48.262;11.586;2022-09-27T19:58:29;0.70;;;0.50;;
2884;SDS011;54691;48.262;11.586;2022-09-27T20:12:58;1.05;;;0.50;;
2884;SDS011;54691;48.262;11.586;2022-09-27T20:31:11;0.88;;;0.40;;
2884;SDS011;54691;48.262;11.586;2022-09-27T20:38:08;0.93;;;0.50;;
2884;SDS011;54691;48.262;11.586;2022-09-27T20:45:05;0.50;;;0.47;;
2884;SDS011;54691;48.262;11.586;2022-09-27T20:52:02;0.40;;;0.40;;
2884;SDS011;54691;48.262;11.586;2022-09-27T20:59:00;2.05;;;0.68;;
2884;SDS011;54691;48.262;11.586;2022-09-27T21:05:57;0.78;;;0.50;;
2884;SDS011;54691;48.262;11.586;2022-09-27T21:12:54;1.92;;;0.40;;
2884;SDS011;54691;48.262;11.586;2022-09-27T21:19:51;6.65;;;0.80;;
2884;SDS011;54691;48.262;11.586;2022-09-27T21:26:48;0.93;;;0.40;;
2884;SDS011;54691;48.262;11.586;2022-09-27T21:33:45;0.60;;;0.35;;
2884;SDS011;54691;48.262;11.586;2022-09-27T21:40:52;0.10;;;0.10;;
2884;SDS011;54691;48.262;11.586;2022-09-27T21:47:45;0.10;;;0.10;;
2884;SDS011;54691;48.262;11.586;2022-09-27T21:54:42;0.40;;;0.20;;
2884;SDS011;54691;48.262;11.586;2022-09-27T22:01:46;0.20;;;0.20;;
2884;SDS011;54691;48.262;11.586;2022-09-27T22:08:39;0.57;;;0.20;;
2884;SDS011;54691;48.262;11.586;2022-09-27T22:15:36;0.47;;;0.15;;
2884;SDS011;54691;48.262;11.586;2022-09-27T22:22:35;0.25;;;0.20;;
2884;SDS011;54691;48.262;11.586;2022-09-27T22:29:32;0.70;;;0.30;;
2884;SDS011;54691;48.262;11.586;2022-09-27T22:36:30;0.33;;;0.20;;
2884;SDS011;54691;48.262;11.586;2022-09-27T22:43:27;1.00;;;0.30;;
2884;SDS011;54691;48.262;11.586;2022-09-27T22:50:24;4.17;;;0.50;;
2884;SDS011;54691;48.262;11.586;2022-09-27T22:57:22;0.50;;;0.40;;
2884;SDS011;54691;48.262;11.586;2022-09-27T23:04:20;0.80;;;0.60;;
2884;SDS011;54691;48.262;11.586;2022-09-27T23:11:18;0.30;;;0.28;;
2884;SDS011;54691;48.262;11.586;2022-09-27T23:18:15;1.20;;;0.33;;
2884;SDS011;54691;48.262;11.586;2022-09-27T23:25:12;2.62;;;0.40;;
2884;SDS011;54691;48.262;11.586;2022-09-27T23:32:09;1.52;;;0.60;;
2884;SDS011;54691;48.262;11.586;2022-09-27T23:39:07;1.12;;;0.50;;
2884;SDS011;54691;48.262;11.586;2022-09-27T23:46:04;2.92;;;0.62;;
2884;SDS011;54691;48.262;11.586;2022-09-27T23:53:02;1.02;;;0.60;;
2884;SDS011;54691;48.262;11.586;2022-09-27T23:59:59;1.50;;;0.55;;
